Terminal Aerodrome Forecast
Issued by NWS

Home | Current Version | Previous Version | Text Only | Print | Product List | Glossary On
Versions: 1 2 3 4 5 6 7 8 9 10 11 12 13
000
FTUS41 KBOX 271720
TAFFMH
TAF
KFMH 271720Z 2718/2818 19011KT P6SM VCSH BKN050
     FM272300 20010KT P6SM VCSH BKN045
     FM280200 21007KT P6SM SCT080
     FM280900 29004KT P6SM SKC
     FM281300 28010KT P6SM SKC=

USA.gov is the U.S. government's official web portal to all federal, state and local government web resources and services.